createdAt,value
2018-12-06T00:00:26.564Z,2.80
2018-12-06T00:01:26.500Z,1.90
2018-12-06T00:02:26.476Z,4.40
2018-12-06T00:03:26.468Z,7.50
2018-12-06T00:04:26.612Z,7.80
2018-12-06T00:05:26.385Z,5.70
2018-12-06T00:06:26.414Z,8.40
2018-12-06T00:07:26.349Z,5.50
2018-12-06T00:08:26.271Z,6.40
2018-12-06T00:09:26.250Z,4.30
2018-12-06T00:10:26.235Z,6.40
2018-12-06T00:11:26.178Z,5.20
2018-12-06T00:12:26.174Z,7.40
2018-12-06T00:13:26.134Z,3.40
2018-12-06T00:14:26.173Z,4.30
2018-12-06T00:15:26.343Z,2.40
2018-12-06T00:18:58.432Z,2.90
2018-12-06T00:19:12.446Z,2.70
2018-12-06T00:20:12.555Z,3.70
2018-12-06T00:21:12.417Z,1.90
2018-12-06T00:24:08.915Z,1.40
2018-12-06T00:24:56.145Z,2.60
2018-12-06T00:25:56.285Z,1.80
2018-12-06T00:26:56.066Z,2.10
2018-12-06T00:27:56.043Z,4.60
2018-12-06T00:28:55.993Z,2.10
2018-12-06T00:29:56.030Z,3.20
2018-12-06T00:30:55.949Z,1.80
2018-12-06T00:32:55.879Z,2.30
2018-12-06T00:33:55.879Z,2.10
2018-12-06T00:34:55.833Z,2.10
2018-12-06T00:35:55.781Z,1.40
2018-12-06T00:36:55.763Z,1.40
2018-12-06T00:37:55.723Z,1.80
2018-12-06T00:38:55.703Z,1.50
2018-12-06T00:39:55.669Z,1.40
2018-12-06T00:40:55.624Z,1.10
2018-12-06T00:41:55.597Z,3.20
2018-12-06T00:42:55.564Z,2.30
2018-12-06T00:43:55.562Z,1.40
2018-12-06T00:44:55.496Z,1.20
2018-12-06T00:45:55.471Z,3.10
2018-12-06T00:46:55.432Z,2.10
2018-12-06T00:47:55.450Z,2.00
2018-12-06T00:48:55.378Z,2.00
2018-12-06T00:49:55.348Z,2.70
2018-12-06T00:50:55.313Z,1.60
2018-12-06T00:51:55.305Z,1.60
2018-12-06T00:52:55.277Z,5.00
2018-12-06T00:53:55.243Z,1.60
2018-12-06T00:54:55.197Z,2.20
2018-12-06T00:55:55.192Z,1.40
2018-12-06T00:56:55.148Z,2.50
2018-12-06T00:57:55.100Z,6.10
2018-12-06T00:58:55.079Z,2.10
2018-12-06T00:59:55.056Z,1.50
2018-12-06T01:00:55.006Z,1.60
2018-12-06T01:01:54.990Z,1.90
2018-12-06T01:02:54.934Z,2.60
2018-12-06T01:03:54.915Z,3.90
2018-12-06T01:04:54.915Z,3.40
2018-12-06T01:05:54.859Z,2.20
2018-12-06T01:06:54.825Z,1.80
2018-12-06T01:07:54.805Z,1.60
2018-12-06T01:08:54.758Z,2.60
2018-12-06T01:09:54.758Z,1.70
2018-12-06T01:10:54.699Z,4.40
2018-12-06T01:11:54.671Z,1.80
2018-12-06T01:12:54.633Z,1.90
2018-12-06T01:13:54.596Z,6.00
2018-12-06T01:14:54.875Z,1.70
2018-12-06T01:15:54.522Z,1.90
2018-12-06T01:16:54.494Z,1.80
2018-12-06T01:17:54.586Z,1.70
2018-12-06T01:18:54.443Z,1.50
2018-12-06T01:19:54.474Z,2.60
2018-12-06T01:20:54.391Z,1.40
2018-12-06T01:21:54.347Z,1.60
2018-12-06T01:22:54.327Z,3.30
2018-12-06T01:23:54.291Z,1.80
2018-12-06T01:24:54.261Z,4.60
2018-12-06T01:25:54.595Z,2.40
2018-12-06T01:26:54.175Z,1.30
2018-12-06T01:27:54.163Z,1.50
2018-12-06T01:28:54.172Z,1.20
2018-12-06T01:29:54.096Z,1.60
2018-12-06T01:30:54.076Z,1.50
2018-12-06T01:31:54.194Z,1.40
2018-12-06T01:32:53.998Z,2.00
2018-12-06T01:33:54.001Z,1.70
2018-12-06T01:34:53.930Z,1.10
2018-12-06T01:35:53.891Z,1.20
2018-12-06T01:36:53.864Z,3.10
2018-12-06T01:37:53.853Z,2.90
2018-12-06T01:38:53.806Z,1.30
2018-12-06T01:39:53.772Z,1.60
2018-12-06T01:40:53.742Z,1.30
2018-12-06T01:41:53.735Z,2.60
2018-12-06T01:42:53.692Z,1.80
2018-12-06T01:43:53.682Z,2.80
2018-12-06T01:44:53.607Z,2.00
2018-12-06T01:45:53.588Z,1.80
2018-12-06T01:46:53.564Z,1.50
2018-12-06T01:47:53.608Z,1.40
2018-12-06T01:48:53.502Z,2.50
2018-12-06T01:49:53.477Z,2.20
2018-12-06T01:50:53.427Z,3.20
2018-12-06T01:51:53.394Z,1.80
2018-12-06T01:52:53.358Z,3.90
2018-12-06T01:53:53.336Z,1.60
2018-12-06T01:54:53.319Z,2.60
2018-12-06T01:55:53.289Z,2.10
2018-12-06T01:56:53.236Z,2.50
2018-12-06T01:57:53.208Z,1.70
2018-12-06T01:58:53.326Z,3.80
2018-12-06T01:59:53.197Z,1.50
2018-12-06T02:00:53.106Z,1.60
2018-12-06T02:01:53.083Z,3.80
2018-12-06T02:02:53.076Z,1.60
2018-12-06T02:03:53.033Z,2.90
2018-12-06T02:04:52.998Z,1.90
2018-12-06T02:05:52.963Z,2.50
2018-12-06T02:06:52.948Z,2.50
2018-12-06T02:07:52.896Z,6.10
2018-12-06T02:08:52.880Z,1.80
2018-12-06T02:09:52.857Z,3.40
2018-12-06T02:10:52.802Z,2.30
2018-12-06T02:11:52.780Z,1.70
2018-12-06T02:12:52.755Z,1.50
2018-12-06T02:13:52.703Z,4.90
2018-12-06T02:14:52.687Z,3.00
2018-12-06T02:15:52.649Z,3.80
2018-12-06T02:16:52.620Z,2.70
2018-12-06T02:17:52.574Z,4.10
2018-12-06T02:18:52.539Z,4.60
2018-12-06T02:19:52.515Z,4.00
2018-12-06T02:20:52.687Z,5.30
2018-12-06T02:21:52.489Z,3.10
2018-12-06T02:22:52.420Z,2.00
2018-12-06T02:23:52.396Z,5.50
2018-12-06T02:24:52.363Z,3.40
2018-12-06T02:25:52.367Z,8.00
2018-12-06T02:26:52.297Z,2.50
2018-12-06T02:27:52.263Z,9.00
2018-12-06T02:28:52.222Z,2.20
2018-12-06T02:29:52.216Z,1.40
2018-12-06T02:30:52.167Z,4.00
2018-12-06T02:31:52.322Z,2.10
2018-12-06T02:32:52.123Z,2.00
2018-12-06T02:33:52.073Z,3.10
2018-12-06T02:34:52.056Z,2.30
2018-12-06T02:35:52.028Z,4.30
2018-12-06T02:36:52.008Z,3.20
2018-12-06T02:37:52.100Z,1.70
2018-12-06T02:38:51.920Z,4.60
2018-12-06T02:39:51.908Z,2.60
2018-12-06T02:40:51.854Z,4.70
2018-12-06T02:41:51.813Z,5.50
2018-12-06T02:42:51.806Z,1.70
2018-12-06T02:43:51.772Z,3.50
2018-12-06T02:44:51.737Z,3.50
2018-12-06T02:45:51.699Z,3.50
2018-12-06T02:46:51.659Z,1.90
2018-12-06T02:47:51.639Z,2.40
2018-12-06T02:48:51.616Z,6.80
2018-12-06T02:49:51.591Z,5.30
2018-12-06T02:50:51.535Z,2.00
2018-12-06T02:51:51.509Z,5.90
2018-12-06T02:52:51.501Z,4.10
2018-12-06T02:53:51.469Z,1.60
2018-12-06T02:54:51.415Z,1.40
2018-12-06T02:55:51.389Z,1.60
2018-12-06T02:56:51.342Z,1.40
2018-12-06T02:57:51.341Z,1.80
2018-12-06T02:58:51.298Z,1.60
2018-12-06T02:59:51.262Z,3.40
2018-12-06T03:00:51.237Z,1.30
2018-12-06T03:01:51.193Z,1.90
2018-12-06T03:02:51.174Z,1.90
2018-12-06T03:03:51.132Z,4.20
2018-12-06T03:04:51.109Z,1.70
2018-12-06T03:05:51.074Z,1.80
2018-12-06T03:06:51.038Z,1.50
2018-12-06T03:07:51.017Z,1.60
2018-12-06T03:08:50.985Z,2.10
2018-12-06T03:09:50.953Z,3.00
2018-12-06T03:10:50.915Z,5.60
2018-12-06T03:11:50.870Z,3.30
2018-12-06T03:12:50.860Z,2.20
2018-12-06T03:13:50.829Z,2.70
2018-12-06T03:15:50.764Z,1.70
2018-12-06T03:16:50.720Z,1.40
2018-12-06T03:17:50.679Z,1.70
2018-12-06T03:18:50.672Z,2.40
2018-12-06T03:19:50.630Z,2.60
2018-12-06T03:20:50.611Z,4.00
2018-12-06T03:21:50.559Z,3.60
2018-12-06T03:22:50.570Z,1.90
2018-12-06T03:23:50.502Z,2.00
2018-12-06T03:24:50.470Z,1.30
2018-12-06T03:25:50.433Z,4.40
2018-12-06T03:26:50.410Z,3.10
2018-12-06T03:27:50.390Z,2.50
2018-12-06T03:28:50.344Z,3.70
2018-12-06T03:29:50.335Z,5.80
2018-12-06T03:30:50.376Z,2.80
2018-12-06T03:31:50.247Z,3.30
2018-12-06T03:32:50.227Z,2.90
2018-12-06T03:33:50.228Z,5.80
2018-12-06T03:34:50.157Z,2.90
2018-12-06T03:35:50.130Z,4.60
2018-12-06T03:36:50.102Z,2.00
2018-12-06T03:37:50.162Z,1.80
2018-12-06T03:38:50.043Z,3.50
2018-12-06T03:39:49.992Z,3.10
2018-12-06T03:40:49.966Z,2.70
2018-12-06T03:41:49.927Z,2.10
2018-12-06T03:42:49.913Z,3.40
2018-12-06T03:43:49.945Z,2.40
2018-12-06T03:44:49.827Z,3.10
2018-12-06T03:45:49.865Z,3.90
2018-12-06T03:46:49.775Z,5.70
2018-12-06T03:47:49.744Z,6.60
2018-12-06T03:48:49.815Z,3.90
2018-12-06T03:49:49.669Z,2.00
2018-12-06T03:50:49.654Z,4.10
2018-12-06T03:51:49.616Z,3.30
2018-12-06T03:52:49.577Z,2.00
2018-12-06T03:53:49.553Z,1.60
2018-12-06T03:54:49.526Z,1.80
2018-12-06T03:55:49.488Z,6.00
2018-12-06T03:56:49.453Z,1.80
2018-12-06T03:57:49.445Z,3.10
2018-12-06T03:58:49.405Z,2.20
2018-12-06T03:59:49.576Z,5.20
2018-12-06T04:00:49.331Z,2.00
2018-12-06T04:01:49.288Z,2.20
2018-12-06T04:02:49.264Z,1.80
2018-12-06T04:03:49.230Z,1.90
2018-12-06T04:04:49.209Z,3.20
2018-12-06T04:06:49.154Z,3.10
2018-12-06T04:07:49.109Z,2.30
2018-12-06T04:08:49.096Z,2.10
2018-12-06T04:09:49.046Z,2.50
2018-12-06T04:10:49.092Z,2.80
2018-12-06T04:11:48.978Z,3.10
2018-12-06T04:12:48.963Z,2.00
2018-12-06T04:13:48.936Z,3.50
2018-12-06T04:14:48.914Z,3.50
2018-12-06T04:15:48.873Z,1.50
2018-12-06T04:16:48.829Z,4.00
2018-12-06T04:17:48.808Z,1.50
2018-12-06T04:18:48.755Z,1.80
2018-12-06T04:19:48.738Z,2.40
2018-12-06T04:20:48.702Z,1.70
2018-12-06T04:21:48.671Z,3.50
2018-12-06T04:22:48.625Z,2.50
2018-12-06T04:23:48.604Z,2.00
2018-12-06T04:24:48.573Z,1.60
2018-12-06T04:25:48.542Z,2.90
2018-12-06T04:26:48.760Z,2.60
2018-12-06T04:27:48.474Z,2.00
2018-12-06T04:28:48.442Z,2.60
2018-12-06T04:29:48.408Z,1.50
2018-12-06T04:30:48.417Z,1.60
2018-12-06T04:31:48.350Z,2.10
2018-12-06T04:32:48.313Z,4.10
2018-12-06T04:33:48.294Z,3.00
2018-12-06T04:34:48.247Z,3.60
2018-12-06T04:35:48.222Z,2.10
2018-12-06T04:36:48.183Z,3.10
2018-12-06T04:37:48.311Z,4.50
2018-12-06T04:38:48.132Z,2.20
2018-12-06T04:39:48.104Z,2.50
2018-12-06T04:40:48.074Z,3.30
2018-12-06T04:41:48.036Z,3.20
2018-12-06T04:42:48.003Z,1.80
2018-12-06T04:43:47.976Z,7.30
2018-12-06T04:44:47.927Z,3.30
2018-12-06T04:45:47.904Z,3.40
2018-12-06T04:46:47.867Z,2.30
2018-12-06T04:47:47.837Z,4.40
2018-12-06T04:48:47.808Z,5.60
2018-12-06T04:49:47.788Z,4.30
2018-12-06T04:50:47.837Z,1.60
2018-12-06T04:51:47.715Z,3.80
2018-12-06T04:52:47.674Z,2.40
2018-12-06T04:53:47.662Z,1.80
2018-12-06T04:54:47.625Z,3.00
2018-12-06T04:55:47.604Z,4.90
2018-12-06T04:56:47.551Z,2.90
2018-12-06T04:57:47.516Z,3.80
2018-12-06T04:58:47.490Z,5.50
2018-12-06T04:59:47.476Z,5.60
2018-12-06T05:00:47.530Z,3.10
2018-12-06T05:01:47.396Z,4.10
2018-12-06T05:02:47.366Z,2.80
2018-12-06T05:03:47.337Z,4.50
2018-12-06T05:04:47.308Z,5.70
2018-12-06T05:05:47.267Z,5.60
2018-12-06T05:06:47.238Z,3.10
2018-12-06T05:07:47.217Z,6.20
2018-12-06T05:08:47.187Z,3.50
2018-12-06T05:09:47.145Z,2.20
2018-12-06T05:10:47.107Z,4.40
2018-12-06T05:11:47.103Z,2.80
2018-12-06T05:12:47.073Z,6.00
2018-12-06T05:13:47.019Z,3.70
2018-12-06T05:14:46.992Z,5.40
2018-12-06T05:15:46.946Z,2.60
2018-12-06T05:16:46.930Z,4.30
2018-12-06T05:17:46.909Z,6.50
2018-12-06T05:18:46.861Z,2.90
2018-12-06T05:19:46.814Z,3.00
2018-12-06T05:20:46.783Z,4.80
2018-12-06T05:21:46.755Z,4.60
2018-12-06T05:22:46.737Z,1.90
2018-12-06T05:23:46.699Z,6.30
2018-12-06T05:24:46.662Z,2.10
2018-12-06T05:25:46.624Z,4.00
2018-12-06T05:26:46.630Z,2.50
2018-12-06T05:27:46.567Z,2.70
2018-12-06T05:28:46.528Z,3.50
2018-12-06T05:29:46.501Z,1.70
2018-12-06T05:30:46.476Z,1.60
2018-12-06T05:31:46.442Z,2.70
2018-12-06T05:32:46.411Z,3.20
2018-12-06T05:33:46.367Z,2.10
2018-12-06T05:34:46.339Z,3.30
2018-12-06T05:35:46.311Z,1.70
2018-12-06T05:36:46.278Z,2.90
2018-12-06T05:37:46.284Z,6.40
2018-12-06T05:38:46.214Z,2.30
2018-12-06T05:39:46.186Z,1.70
2018-12-06T05:40:46.553Z,2.30
2018-12-06T05:41:46.118Z,2.00
2018-12-06T05:42:46.129Z,2.00
2018-12-06T05:43:46.047Z,2.20
2018-12-06T05:44:46.040Z,3.30
2018-12-06T05:45:45.999Z,3.70
2018-12-06T05:46:45.952Z,3.80
2018-12-06T05:47:45.933Z,7.10
2018-12-06T05:48:45.900Z,2.90
2018-12-06T05:49:45.876Z,4.30
2018-12-06T05:50:45.829Z,4.70
2018-12-06T05:51:45.795Z,2.80
2018-12-06T05:52:45.767Z,1.80
2018-12-06T05:53:45.759Z,8.30
2018-12-06T05:54:45.697Z,3.50
2018-12-06T05:55:45.675Z,5.00
2018-12-06T05:56:45.629Z,3.60
2018-12-06T05:57:45.621Z,4.80
2018-12-06T05:58:45.567Z,6.00
2018-12-06T05:59:45.558Z,3.20
2018-12-06T06:00:45.507Z,2.40
2018-12-06T06:01:45.476Z,3.80
2018-12-06T06:02:45.462Z,4.70
2018-12-06T06:03:45.406Z,5.20
2018-12-06T06:04:45.394Z,6.10
2018-12-06T06:05:45.350Z,1.90
2018-12-06T06:06:45.315Z,6.60
2018-12-06T06:07:45.297Z,1.90
2018-12-06T06:08:45.432Z,3.10
2018-12-06T06:09:45.267Z,2.80
2018-12-06T06:10:45.193Z,3.50
2018-12-06T06:11:45.156Z,1.60
2018-12-06T06:12:45.140Z,2.40
2018-12-06T06:13:45.099Z,3.50
2018-12-06T06:14:45.364Z,1.80
2018-12-06T06:15:45.037Z,1.80
2018-12-06T06:16:45.019Z,5.20
2018-12-06T06:17:44.979Z,2.40
2018-12-06T06:18:44.936Z,3.40
2018-12-06T06:19:44.913Z,1.80
2018-12-06T06:20:45.116Z,5.30
2018-12-06T06:21:44.846Z,3.00
2018-12-06T06:22:44.822Z,4.40
2018-12-06T06:23:44.783Z,3.80
2018-12-06T06:24:44.746Z,2.80
2018-12-06T06:25:44.703Z,5.10
2018-12-06T06:26:44.677Z,2.40
2018-12-06T06:27:44.846Z,2.10
2018-12-06T06:28:44.613Z,3.40
2018-12-06T06:29:44.586Z,3.00
2018-12-06T06:30:44.551Z,2.80
2018-12-06T06:31:44.518Z,2.30
2018-12-06T06:32:44.476Z,2.50
2018-12-06T06:33:44.448Z,3.60
2018-12-06T06:34:44.429Z,1.40
2018-12-06T06:35:44.382Z,1.80
2018-12-06T06:36:44.349Z,2.10
2018-12-06T06:37:44.321Z,4.30
2018-12-06T06:38:44.295Z,2.60
2018-12-06T06:39:44.260Z,1.50
2018-12-06T06:40:44.226Z,2.50
2018-12-06T06:41:44.191Z,9.00
2018-12-06T06:42:44.160Z,4.50
2018-12-06T06:43:44.167Z,1.60
2018-12-06T06:44:44.117Z,1.60
2018-12-06T06:45:44.066Z,2.20
2018-12-06T06:46:44.037Z,1.70
2018-12-06T06:47:44.016Z,6.30
2018-12-06T06:48:43.971Z,1.80
2018-12-06T06:49:43.951Z,2.60
2018-12-06T06:50:43.904Z,3.00
2018-12-06T06:51:43.888Z,5.30
2018-12-06T06:52:43.842Z,1.80
2018-12-06T06:53:43.821Z,2.30
2018-12-06T06:54:43.780Z,1.90
2018-12-06T06:55:43.750Z,1.90
2018-12-06T06:56:43.708Z,3.30
2018-12-06T06:57:43.675Z,2.50
2018-12-06T06:58:43.651Z,2.90
2018-12-06T06:59:43.658Z,2.60
2018-12-06T07:00:43.580Z,1.70
2018-12-06T07:01:43.579Z,5.00
2018-12-06T07:02:43.514Z,4.80
2018-12-06T07:03:43.494Z,2.40
2018-12-06T07:04:43.470Z,3.50
2018-12-06T07:05:43.423Z,3.30
2018-12-06T07:06:43.434Z,5.40
2018-12-06T07:07:43.507Z,2.10
2018-12-06T07:08:43.325Z,1.90
2018-12-06T07:09:43.302Z,1.70
2018-12-06T07:10:43.266Z,1.70
2018-12-06T07:11:43.250Z,2.30
2018-12-06T07:12:43.196Z,2.50
2018-12-06T07:13:43.364Z,2.80
2018-12-06T07:14:43.138Z,1.50
2018-12-06T07:15:43.103Z,2.30
2018-12-06T07:16:43.068Z,7.90
2018-12-06T07:17:43.060Z,3.00
2018-12-06T07:18:43.004Z,10.80
2018-12-06T07:19:42.973Z,2.60
2018-12-06T07:20:42.937Z,4.10
2018-12-06T07:21:42.913Z,3.00
2018-12-06T07:22:42.937Z,3.80
2018-12-06T07:23:42.844Z,3.70
2018-12-06T07:24:42.820Z,3.30
2018-12-06T07:25:46.324Z,1.70
2018-12-06T07:26:42.818Z,1.70
2018-12-06T07:27:42.723Z,4.70
2018-12-06T07:28:42.686Z,4.20
2018-12-06T07:29:42.689Z,2.40
2018-12-06T07:30:42.649Z,4.00
2018-12-06T07:31:42.590Z,1.70
2018-12-06T07:32:42.557Z,2.10
2018-12-06T07:33:42.529Z,2.30
2018-12-06T07:34:42.490Z,2.30
2018-12-06T07:35:42.465Z,3.60
2018-12-06T07:36:42.424Z,2.10
2018-12-06T07:37:42.396Z,2.00
2018-12-06T07:38:42.389Z,2.70
2018-12-06T07:39:42.527Z,1.70
2018-12-06T07:40:42.294Z,1.30
2018-12-06T07:41:42.305Z,1.80
2018-12-06T07:42:42.237Z,3.00
2018-12-06T07:43:42.202Z,2.80
2018-12-06T07:44:42.176Z,2.10
2018-12-06T07:45:42.156Z,2.30
2018-12-06T07:46:42.112Z,1.60
2018-12-06T07:47:42.075Z,1.40
2018-12-06T07:48:42.043Z,2.00
2018-12-06T07:49:42.010Z,2.80
2018-12-06T07:50:41.987Z,2.50
2018-12-06T07:51:41.958Z,3.60
2018-12-06T07:52:41.932Z,1.50
2018-12-06T07:53:41.895Z,2.00
2018-12-06T07:54:41.866Z,6.70
2018-12-06T07:55:41.811Z,2.40
2018-12-06T07:56:41.788Z,3.70
2018-12-06T07:57:41.759Z,5.70
2018-12-06T07:58:41.745Z,2.30
2018-12-06T07:59:41.687Z,4.00
2018-12-06T08:00:41.666Z,1.50
2018-12-06T08:01:41.666Z,4.10
2018-12-06T08:02:41.581Z,1.70
2018-12-06T08:03:41.568Z,3.50
2018-12-06T08:04:41.546Z,3.40
2018-12-06T08:05:41.486Z,3.60
2018-12-06T08:06:41.453Z,2.50
2018-12-06T08:07:41.421Z,2.90
2018-12-06T08:08:41.400Z,3.80
2018-12-06T08:09:41.363Z,7.70
2018-12-06T08:10:41.324Z,3.00
2018-12-06T08:11:41.446Z,2.80
2018-12-06T08:12:41.263Z,2.00
2018-12-06T08:13:41.232Z,4.00
2018-12-06T08:14:41.217Z,1.60
2018-12-06T08:15:41.182Z,2.30
2018-12-06T08:16:41.130Z,2.40
2018-12-06T08:17:41.110Z,1.60
2018-12-06T08:18:41.087Z,4.50
2018-12-06T08:19:41.042Z,2.40
2018-12-06T08:20:41.011Z,4.60
2018-12-06T08:21:40.983Z,3.00
2018-12-06T08:22:40.952Z,2.50
2018-12-06T08:23:40.927Z,1.70
2018-12-06T08:24:40.891Z,1.90
2018-12-06T08:25:40.838Z,2.60
2018-12-06T08:26:40.826Z,2.00
2018-12-06T08:29:40.747Z,2.50
2018-12-06T08:30:42.063Z,3.20
2018-12-06T08:31:40.647Z,2.10
2018-12-06T08:32:40.623Z,1.70
2018-12-06T08:33:40.743Z,3.10
2018-12-06T08:34:40.551Z,2.20
2018-12-06T08:35:40.590Z,2.20
2018-12-06T08:36:40.518Z,3.80
2018-12-06T08:37:40.465Z,1.90
2018-12-06T08:38:40.433Z,1.50
2018-12-06T08:39:40.397Z,2.90
2018-12-06T08:40:40.377Z,2.10
2018-12-06T08:41:40.350Z,2.00
2018-12-06T08:42:45.623Z,3.00
2018-12-06T08:43:40.269Z,1.50
2018-12-06T08:44:40.229Z,6.50
2018-12-06T08:45:40.203Z,2.30
2018-12-06T08:46:40.171Z,1.80
2018-12-06T08:47:40.141Z,3.40
2018-12-06T08:48:40.104Z,3.70
2018-12-06T08:49:40.109Z,3.70
2018-12-06T08:50:40.053Z,2.50
2018-12-06T08:51:40.002Z,4.20
2018-12-06T08:52:39.966Z,3.70
2018-12-06T08:53:39.955Z,3.40
2018-12-06T08:54:39.899Z,3.30
2018-12-06T08:55:39.897Z,3.20
2018-12-06T08:56:39.851Z,1.30
2018-12-06T08:57:39.843Z,2.50
2018-12-06T08:58:39.787Z,1.70
2018-12-06T08:59:39.770Z,1.70
2018-12-06T09:00:39.721Z,1.50
2018-12-06T09:01:39.681Z,3.30
2018-12-06T09:02:39.670Z,6.40
2018-12-06T09:03:39.639Z,2.10
2018-12-06T09:04:39.588Z,3.00
2018-12-06T09:05:39.918Z,1.30
2018-12-06T09:06:39.549Z,2.00
2018-12-06T09:07:39.507Z,2.40
2018-12-06T09:08:39.458Z,2.80
2018-12-06T09:09:39.457Z,2.40
2018-12-06T09:10:40.660Z,1.80
2018-12-06T09:11:39.587Z,4.10
2018-12-06T09:12:39.345Z,3.50
2018-12-06T09:13:39.304Z,1.40
2018-12-06T09:14:39.267Z,3.30
2018-12-06T09:15:39.250Z,3.20
2018-12-06T09:16:39.199Z,5.60
2018-12-06T09:17:39.176Z,5.00
2018-12-06T09:18:39.148Z,1.60
2018-12-06T09:19:39.099Z,1.40
2018-12-06T09:20:39.097Z,2.40
2018-12-06T09:21:39.047Z,2.50
2018-12-06T09:22:39.024Z,2.10
2018-12-06T09:23:39.030Z,2.10
2018-12-06T09:24:38.964Z,2.10
2018-12-06T09:25:38.929Z,5.80
2018-12-06T09:26:38.882Z,5.80
2018-12-06T09:27:38.929Z,4.90
2018-12-06T09:28:38.805Z,4.90
2018-12-06T09:29:38.778Z,4.60
2018-12-06T09:30:38.823Z,3.90
2018-12-06T09:31:38.736Z,2.80
2018-12-06T09:32:38.712Z,6.30
2018-12-06T09:33:38.669Z,4.40
2018-12-06T09:34:38.609Z,5.60
2018-12-06T09:35:38.604Z,8.70
2018-12-06T09:36:38.559Z,13.10
2018-12-06T09:37:38.542Z,11.30
2018-12-06T09:38:38.517Z,12.70
2018-12-06T09:39:38.453Z,21.10
2018-12-06T09:40:38.431Z,9.50
2018-12-06T09:41:38.413Z,14.20
2018-12-06T09:42:38.377Z,13.30
2018-12-06T09:43:38.481Z,18.20
2018-12-06T09:44:38.310Z,16.30
2018-12-06T09:45:38.266Z,12.00
2018-12-06T09:46:38.227Z,16.60
2018-12-06T09:47:38.211Z,9.60
2018-12-06T09:48:38.181Z,10.60
2018-12-06T09:49:38.308Z,7.30
2018-12-06T09:50:38.128Z,7.50
2018-12-06T09:51:38.078Z,6.20
2018-12-06T09:52:38.056Z,14.50
2018-12-06T09:53:38.015Z,6.90
2018-12-06T09:54:37.998Z,8.30
2018-12-06T09:55:37.940Z,6.10
2018-12-06T09:56:37.923Z,7.20
2018-12-06T09:57:37.876Z,5.80
2018-12-06T09:58:37.857Z,4.70
2018-12-06T09:59:37.882Z,5.30
2018-12-06T10:01:37.931Z,4.40
2018-12-06T10:02:37.726Z,5.90
2018-12-06T10:03:37.772Z,4.30
2018-12-06T10:04:37.659Z,4.10
2018-12-06T10:06:38.095Z,3.60
2018-12-06T10:07:37.571Z,4.70
2018-12-06T10:08:37.764Z,3.20
2018-12-06T10:09:37.503Z,4.80
2018-12-06T10:10:37.499Z,3.20
2018-12-06T10:11:37.595Z,3.70
2018-12-06T10:12:37.430Z,2.40
2018-12-06T10:13:37.381Z,3.90
2018-12-06T10:14:37.332Z,3.20
2018-12-06T10:15:37.305Z,3.90
2018-12-06T10:16:37.266Z,4.40
2018-12-06T10:17:37.489Z,5.60
2018-12-06T10:18:37.220Z,3.50
2018-12-06T10:19:37.190Z,4.20
2018-12-06T10:20:37.138Z,4.00
2018-12-06T10:21:37.109Z,3.40
2018-12-06T10:22:37.079Z,3.90
2018-12-06T10:23:37.045Z,1.60
2018-12-06T10:24:37.034Z,3.50
2018-12-06T10:25:36.984Z,2.30
2018-12-06T10:26:37.140Z,4.10
2018-12-06T10:27:36.929Z,4.80
2018-12-06T10:28:36.898Z,2.30
2018-12-06T10:29:37.083Z,2.40
2018-12-06T10:30:36.828Z,4.50
2018-12-06T10:31:36.812Z,7.40
2018-12-06T10:32:36.801Z,2.60
2018-12-06T10:33:36.749Z,4.00
2018-12-06T10:34:36.720Z,2.90
2018-12-06T10:35:36.679Z,6.00
2018-12-06T10:36:36.653Z,4.30
2018-12-06T10:37:36.611Z,4.10
2018-12-06T10:38:36.601Z,2.10
2018-12-06T10:39:36.562Z,2.30
2018-12-06T10:40:36.561Z,3.70
2018-12-06T10:41:36.477Z,1.60
2018-12-06T10:43:36.473Z,2.70
2018-12-06T10:44:36.381Z,4.70
2018-12-06T10:45:36.362Z,2.30
2018-12-06T10:46:36.329Z,3.50
2018-12-06T10:47:36.307Z,1.80
2018-12-06T10:48:36.299Z,1.70
2018-12-06T10:49:36.224Z,4.10
2018-12-06T10:50:36.188Z,1.40
2018-12-06T10:51:36.161Z,4.20
2018-12-06T10:52:36.139Z,2.10
2018-12-06T10:53:36.102Z,1.60
2018-12-06T10:54:36.064Z,3.50
2018-12-06T10:55:36.052Z,4.50
2018-12-06T10:56:36.004Z,3.10
2018-12-06T10:57:35.978Z,1.60
2018-12-06T10:58:35.967Z,7.10
2018-12-06T10:59:35.917Z,4.00
2018-12-06T11:00:35.880Z,1.90
2018-12-06T11:01:35.855Z,1.30
2018-12-06T11:02:35.827Z,1.20
2018-12-06T11:03:35.796Z,3.80
2018-12-06T11:04:35.764Z,5.00
2018-12-06T11:05:35.739Z,1.70
2018-12-06T11:06:35.695Z,2.00
2018-12-06T11:07:35.680Z,2.40
2018-12-06T11:08:35.642Z,2.70
2018-12-06T11:09:35.645Z,3.30
2018-12-06T11:10:35.593Z,2.80
2018-12-06T11:11:35.545Z,3.40
2018-12-06T11:12:35.514Z,2.50
2018-12-06T11:13:35.477Z,3.70
2018-12-06T11:14:35.608Z,2.00
2018-12-06T11:15:35.430Z,1.50
2018-12-06T11:16:35.390Z,2.40
2018-12-06T11:17:35.575Z,1.80
2018-12-06T11:18:35.350Z,3.30
2018-12-06T11:19:35.298Z,1.20
2018-12-06T11:20:35.263Z,2.00
2018-12-06T11:21:35.281Z,1.90
2018-12-06T11:22:35.240Z,2.60
2018-12-06T11:23:35.203Z,1.60
2018-12-06T11:24:35.151Z,1.80
2018-12-06T11:25:35.148Z,2.80
2018-12-06T11:26:35.123Z,3.50
2018-12-06T11:27:35.063Z,1.50
2018-12-06T11:28:35.052Z,2.90
2018-12-06T11:29:35.011Z,1.40
2018-12-06T11:30:34.986Z,3.00
2018-12-06T11:31:34.934Z,2.70
2018-12-06T11:32:34.897Z,11.90
2018-12-06T11:33:34.875Z,55.40
2018-12-06T11:34:34.847Z,113.30
2018-12-06T11:35:34.812Z,178.20
2018-12-06T11:36:34.786Z,383.20
2018-12-06T11:37:34.748Z,355.20
2018-12-06T11:38:34.728Z,410.90
2018-12-06T11:39:34.713Z,357.60
2018-12-06T11:40:34.686Z,288.10
2018-12-06T11:41:34.660Z,246.20
2018-12-06T11:42:34.611Z,174.40
2018-12-06T11:43:34.590Z,171.90
2018-12-06T11:44:34.548Z,152.30
2018-12-06T11:45:34.623Z,111.90
2018-12-06T11:46:34.490Z,94.90
2018-12-06T11:47:34.445Z,81.50
2018-12-06T11:48:34.415Z,62.50
2018-12-06T11:49:34.386Z,65.50
2018-12-06T11:50:34.379Z,53.00
2018-12-06T11:51:34.339Z,44.40
2018-12-06T11:52:34.344Z,41.00
2018-12-06T11:53:34.351Z,30.20
2018-12-06T11:54:34.281Z,32.80
2018-12-06T11:55:34.290Z,28.50
2018-12-06T11:56:34.199Z,24.50
2018-12-06T11:57:34.146Z,31.90
2018-12-06T11:58:34.118Z,25.20
2018-12-06T11:59:34.092Z,26.60
2018-12-06T12:00:34.068Z,24.20
2018-12-06T12:01:34.046Z,21.50
2018-12-06T12:02:33.998Z,21.30
2018-12-06T12:03:33.979Z,16.50
2018-12-06T12:04:33.945Z,18.90
2018-12-06T12:05:34.124Z,15.70
2018-12-06T12:06:33.876Z,17.40
2018-12-06T12:07:33.849Z,15.50
2018-12-06T12:08:33.819Z,11.20
2018-12-06T12:09:33.792Z,9.70
2018-12-06T12:10:33.761Z,9.80
2018-12-06T12:11:33.730Z,10.30
2018-12-06T12:12:33.715Z,7.80
2018-12-06T12:13:33.681Z,7.60
2018-12-06T12:14:33.659Z,4.90
2018-12-06T12:15:33.630Z,5.70
2018-12-06T12:16:33.588Z,8.40
2018-12-06T12:17:33.558Z,5.90
2018-12-06T12:18:33.524Z,6.20
2018-12-06T12:19:33.495Z,11.40
2018-12-06T12:20:33.478Z,6.10
2018-12-06T12:21:33.472Z,6.50
2018-12-06T12:22:33.438Z,2.90
2018-12-06T12:23:33.541Z,5.30
2018-12-06T12:24:33.359Z,4.30
2018-12-06T12:25:33.315Z,13.50
2018-12-06T12:26:33.293Z,4.60
2018-12-06T12:27:33.276Z,2.80
2018-12-06T12:28:33.226Z,2.80
2018-12-06T12:29:33.226Z,3.20
2018-12-06T12:30:33.177Z,2.50
2018-12-06T12:31:33.155Z,4.30
2018-12-06T12:32:33.112Z,3.70
2018-12-06T12:33:33.105Z,3.80
2018-12-06T12:34:33.060Z,2.60
2018-12-06T12:35:33.035Z,2.40
2018-12-06T12:36:33.004Z,3.90
2018-12-06T12:37:32.993Z,2.70
2018-12-06T12:38:32.936Z,3.80
2018-12-06T12:39:32.909Z,2.00
2018-12-06T12:40:32.882Z,3.40
2018-12-06T12:41:32.871Z,1.80
2018-12-06T12:42:32.843Z,2.30
2018-12-06T12:43:32.787Z,4.50
2018-12-06T12:44:32.776Z,3.60
2018-12-06T12:45:32.731Z,2.50
2018-12-06T12:46:32.729Z,2.20
2018-12-06T12:47:32.680Z,1.80
2018-12-06T12:48:32.653Z,4.80
2018-12-06T12:49:32.621Z,2.20
2018-12-06T12:50:32.590Z,2.00
2018-12-06T12:51:32.561Z,2.20
2018-12-06T12:52:32.548Z,1.30
2018-12-06T12:53:32.581Z,1.40
2018-12-06T12:54:32.678Z,2.60
2018-12-06T12:55:32.446Z,1.70
2018-12-06T12:57:12.989Z,1.70
2018-12-06T12:57:32.449Z,2.10
2018-12-06T12:58:32.377Z,2.10
2018-12-06T12:59:32.486Z,1.50
2018-12-06T13:00:32.294Z,1.40
2018-12-06T13:01:32.293Z,1.20
2018-12-06T13:02:32.232Z,1.10
2018-12-06T13:03:32.205Z,1.60
2018-12-06T13:04:32.190Z,1.20
2018-12-06T13:05:32.160Z,1.20
2018-12-06T13:06:32.127Z,1.40
2018-12-06T13:07:32.102Z,1.30
2018-12-06T13:08:32.088Z,1.20
2018-12-06T13:09:32.044Z,1.60
2018-12-06T13:10:32.005Z,3.90
2018-12-06T13:11:32.002Z,1.20
2018-12-06T13:12:31.976Z,1.10
2018-12-06T13:13:31.978Z,1.60
2018-12-06T13:14:31.901Z,1.10
2018-12-06T13:15:31.875Z,1.10
2018-12-06T13:16:31.843Z,1.60
2018-12-06T13:17:31.817Z,1.10
2018-12-06T13:18:31.816Z,1.20
2018-12-06T13:19:31.744Z,1.50
2018-12-06T13:20:31.743Z,1.50
2018-12-06T13:21:31.688Z,1.40
2018-12-06T13:22:31.668Z,1.30
2018-12-06T13:23:31.633Z,1.10
2018-12-06T13:24:31.598Z,0.90
2018-12-06T13:25:31.595Z,1.30
2018-12-06T13:26:31.541Z,1.40
2018-12-06T13:27:31.526Z,1.30